CGV6 weather

Grand Valley (Martin Field)
Ontario, Canada

Public forecast

Using degrees Celsius for public forecast. Weather courtesy of forecast.io.

Closest aviation weather report (METAR) to Grand Valley (Martin Field)

Closest report is Waterloo Airport, 25.2 nm (46.7 km) S. Retrieved 2020/04/02 03:00 UTC (35 minutes ago):

CYKF 020300Z AUTO 31009KT 9SM OVC110 04/M03 A2997 RMK SLP159

Closest aviation forecast (TAF) to Grand Valley (Martin Field)

Closest forecast is Waterloo Airport, 25.2 nm (46.7 km) S. Retrieved 2020-04-02 02:39 UTC (56 minutes ago):

TAF CYKF 020138Z 0202/0214 32007KT P6SM FEW060 TEMPO 0202/0208 BKN060 RMK FCST BASED ON AUTO OBS NXT FCST BY 020800Z